sensor_id;sensor_type;location;lat;lon;timestamp;P1;durP1;ratioP1;P2;durP2;ratioP2
24644;SDS011;12780;45.502;9.146;2024-01-11T00:02:24;25.17;;;12.48;;
24644;SDS011;12780;45.502;9.146;2024-01-11T00:04:50;24.50;;;12.13;;
24644;SDS011;12780;45.502;9.146;2024-01-11T00:07:16;23.85;;;12.60;;
24644;SDS011;12780;45.502;9.146;2024-01-11T00:09:42;29.42;;;12.60;;
24644;SDS011;12780;45.502;9.146;2024-01-11T00:12:08;22.83;;;12.48;;
24644;SDS011;12780;45.502;9.146;2024-01-11T00:14:35;25.55;;;12.85;;
24644;SDS011;12780;45.502;9.146;2024-01-11T00:17:01;24.20;;;11.70;;
24644;SDS011;12780;45.502;9.146;2024-01-11T00:19:27;30.33;;;12.48;;
24644;SDS011;12780;45.502;9.146;2024-01-11T00:21:54;23.38;;;12.07;;
24644;SDS011;12780;45.502;9.146;2024-01-11T00:24:20;24.58;;;12.57;;
24644;SDS011;12780;45.502;9.146;2024-01-11T00:26:46;23.63;;;11.82;;
24644;SDS011;12780;45.502;9.146;2024-01-11T00:29:12;27.38;;;12.60;;
24644;SDS011;12780;45.502;9.146;2024-01-11T00:31:38;30.65;;;12.77;;
24644;SDS011;12780;45.502;9.146;2024-01-11T00:34:04;24.15;;;11.70;;
24644;SDS011;12780;45.502;9.146;2024-01-11T00:36:30;22.05;;;11.98;;
24644;SDS011;12780;45.502;9.146;2024-01-11T00:38:58;21.80;;;11.65;;
24644;SDS011;12780;45.502;9.146;2024-01-11T00:41:24;25.35;;;13.32;;
24644;SDS011;12780;45.502;9.146;2024-01-11T00:43:50;28.25;;;14.57;;
24644;SDS011;12780;45.502;9.146;2024-01-11T00:46:16;28.08;;;13.90;;
24644;SDS011;12780;45.502;9.146;2024-01-11T00:48:42;24.27;;;12.82;;
24644;SDS011;12780;45.502;9.146;2024-01-11T00:51:08;23.70;;;12.05;;
24644;SDS011;12780;45.502;9.146;2024-01-11T00:53:34;30.15;;;14.75;;
24644;SDS011;12780;45.502;9.146;2024-01-11T00:56:00;35.97;;;16.83;;
24644;SDS011;12780;45.502;9.146;2024-01-11T00:58:26;60.97;;;24.23;;
24644;SDS011;12780;45.502;9.146;2024-01-11T01:00:53;90.90;;;38.38;;
24644;SDS011;12780;45.502;9.146;2024-01-11T01:03:20;101.07;;;44.58;;
24644;SDS011;12780;45.502;9.146;2024-01-11T01:05:46;100.10;;;41.75;;
24644;SDS011;12780;45.502;9.146;2024-01-11T01:08:12;90.18;;;38.65;;
24644;SDS011;12780;45.502;9.146;2024-01-11T01:10:38;84.28;;;36.42;;
24644;SDS011;12780;45.502;9.146;2024-01-11T01:13:05;76.90;;;33.22;;
24644;SDS011;12780;45.502;9.146;2024-01-11T01:15:31;45.72;;;21.42;;
24644;SDS011;12780;45.502;9.146;2024-01-11T01:17:57;30.02;;;15.20;;
24644;SDS011;12780;45.502;9.146;2024-01-11T01:20:23;38.03;;;17.27;;
24644;SDS011;12780;45.502;9.146;2024-01-11T01:22:49;31.20;;;15.85;;
24644;SDS011;12780;45.502;9.146;2024-01-11T01:25:15;38.83;;;18.35;;
24644;SDS011;12780;45.502;9.146;2024-01-11T01:27:41;40.60;;;18.55;;
24644;SDS011;12780;45.502;9.146;2024-01-11T01:30:07;39.08;;;18.65;;
24644;SDS011;12780;45.502;9.146;2024-01-11T01:32:33;43.75;;;18.05;;
24644;SDS011;12780;45.502;9.146;2024-01-11T01:34:59;50.55;;;21.33;;
24644;SDS011;12780;45.502;9.146;2024-01-11T01:37:25;55.03;;;24.50;;
24644;SDS011;12780;45.502;9.146;2024-01-11T01:39:51;57.92;;;25.05;;
24644;SDS011;12780;45.502;9.146;2024-01-11T01:42:17;40.33;;;20.35;;
24644;SDS011;12780;45.502;9.146;2024-01-11T01:44:43;43.47;;;18.90;;
24644;SDS011;12780;45.502;9.146;2024-01-11T01:47:10;38.20;;;18.02;;
24644;SDS011;12780;45.502;9.146;2024-01-11T01:49:37;34.90;;;16.88;;
24644;SDS011;12780;45.502;9.146;2024-01-11T01:52:03;41.05;;;17.55;;
24644;SDS011;12780;45.502;9.146;2024-01-11T01:54:30;31.85;;;15.88;;
24644;SDS011;12780;45.502;9.146;2024-01-11T01:56:56;32.33;;;15.73;;
24644;SDS011;12780;45.502;9.146;2024-01-11T01:59:23;32.50;;;15.05;;
24644;SDS011;12780;45.502;9.146;2024-01-11T02:01:50;30.20;;;15.05;;
24644;SDS011;12780;45.502;9.146;2024-01-11T02:04:16;31.38;;;14.90;;
24644;SDS011;12780;45.502;9.146;2024-01-11T02:06:43;36.03;;;16.45;;
24644;SDS011;12780;45.502;9.146;2024-01-11T02:09:10;31.77;;;15.18;;
24644;SDS011;12780;45.502;9.146;2024-01-11T02:11:36;37.05;;;16.65;;
24644;SDS011;12780;45.502;9.146;2024-01-11T02:14:03;33.47;;;16.50;;
24644;SDS011;12780;45.502;9.146;2024-01-11T02:16:29;35.08;;;15.88;;
24644;SDS011;12780;45.502;9.146;2024-01-11T02:18:55;33.60;;;15.98;;
24644;SDS011;12780;45.502;9.146;2024-01-11T02:21:21;35.03;;;15.18;;
24644;SDS011;12780;45.502;9.146;2024-01-11T02:23:55;35.72;;;15.75;;
24644;SDS011;12780;45.502;9.146;2024-01-11T02:26:21;33.20;;;16.00;;
24644;SDS011;12780;45.502;9.146;2024-01-11T02:28:47;33.55;;;15.63;;
24644;SDS011;12780;45.502;9.146;2024-01-11T02:31:13;39.33;;;17.90;;
24644;SDS011;12780;45.502;9.146;2024-01-11T02:33:39;36.42;;;16.77;;
24644;SDS011;12780;45.502;9.146;2024-01-11T02:36:05;31.40;;;15.07;;
24644;SDS011;12780;45.502;9.146;2024-01-11T02:38:32;36.63;;;16.10;;
24644;SDS011;12780;45.502;9.146;2024-01-11T02:40:59;36.92;;;16.92;;
24644;SDS011;12780;45.502;9.146;2024-01-11T02:43:25;33.83;;;16.88;;
24644;SDS011;12780;45.502;9.146;2024-01-11T02:45:55;35.00;;;15.73;;
24644;SDS011;12780;45.502;9.146;2024-01-11T02:48:23;38.25;;;16.90;;
24644;SDS011;12780;45.502;9.146;2024-01-11T02:50:52;40.72;;;18.95;;
24644;SDS011;12780;45.502;9.146;2024-01-11T02:53:18;42.97;;;20.27;;
24644;SDS011;12780;45.502;9.146;2024-01-11T02:55:45;43.72;;;20.95;;
24644;SDS011;12780;45.502;9.146;2024-01-11T02:58:11;44.75;;;20.63;;
24644;SDS011;12780;45.502;9.146;2024-01-11T03:00:37;37.42;;;18.60;;
24644;SDS011;12780;45.502;9.146;2024-01-11T03:03:03;39.38;;;19.27;;
24644;SDS011;12780;45.502;9.146;2024-01-11T03:05:29;38.92;;;17.38;;
24644;SDS011;12780;45.502;9.146;2024-01-11T03:07:55;36.60;;;17.90;;
24644;SDS011;12780;45.502;9.146;2024-01-11T03:10:21;38.08;;;18.42;;
24644;SDS011;12780;45.502;9.146;2024-01-11T03:12:47;36.53;;;18.67;;
24644;SDS011;12780;45.502;9.146;2024-01-11T03:15:14;43.75;;;19.23;;
24644;SDS011;12780;45.502;9.146;2024-01-11T03:17:40;41.30;;;18.50;;
24644;SDS011;12780;45.502;9.146;2024-01-11T03:20:06;35.85;;;17.90;;
24644;SDS011;12780;45.502;9.146;2024-01-11T03:22:33;39.42;;;18.50;;
24644;SDS011;12780;45.502;9.146;2024-01-11T03:24:59;45.65;;;20.88;;
24644;SDS011;12780;45.502;9.146;2024-01-11T03:27:25;47.92;;;20.90;;
24644;SDS011;12780;45.502;9.146;2024-01-11T03:29:51;41.50;;;18.95;;
24644;SDS011;12780;45.502;9.146;2024-01-11T03:32:17;43.65;;;18.35;;
24644;SDS011;12780;45.502;9.146;2024-01-11T03:34:44;36.85;;;16.50;;
24644;SDS011;12780;45.502;9.146;2024-01-11T03:37:10;31.92;;;15.07;;
24644;SDS011;12780;45.502;9.146;2024-01-11T03:39:36;32.00;;;15.73;;
24644;SDS011;12780;45.502;9.146;2024-01-11T03:42:02;30.50;;;14.88;;
24644;SDS011;12780;45.502;9.146;2024-01-11T03:44:28;29.80;;;14.40;;
24644;SDS011;12780;45.502;9.146;2024-01-11T03:46:54;28.00;;;13.98;;
24644;SDS011;12780;45.502;9.146;2024-01-11T03:49:20;29.13;;;13.82;;
24644;SDS011;12780;45.502;9.146;2024-01-11T03:51:46;24.60;;;13.35;;
24644;SDS011;12780;45.502;9.146;2024-01-11T03:54:12;27.17;;;14.00;;
24644;SDS011;12780;45.502;9.146;2024-01-11T03:56:39;26.70;;;13.45;;
24644;SDS011;12780;45.502;9.146;2024-01-11T03:59:05;26.25;;;13.15;;
24644;SDS011;12780;45.502;9.146;2024-01-11T04:01:31;26.65;;;13.00;;
24644;SDS011;12780;45.502;9.146;2024-01-11T04:03:57;29.85;;;13.93;;
24644;SDS011;12780;45.502;9.146;2024-01-11T04:06:23;28.17;;;13.80;;
24644;SDS011;12780;45.502;9.146;2024-01-11T04:08:49;26.25;;;12.90;;
24644;SDS011;12780;45.502;9.146;2024-01-11T04:11:16;30.85;;;14.02;;
24644;SDS011;12780;45.502;9.146;2024-01-11T04:13:43;27.20;;;13.48;;
24644;SDS011;12780;45.502;9.146;2024-01-11T04:16:09;25.73;;;13.07;;
24644;SDS011;12780;45.502;9.146;2024-01-11T04:18:35;27.48;;;13.23;;
24644;SDS011;12780;45.502;9.146;2024-01-11T04:21:01;27.00;;;13.57;;
24644;SDS011;12780;45.502;9.146;2024-01-11T04:23:27;29.20;;;13.50;;
24644;SDS011;12780;45.502;9.146;2024-01-11T04:25:53;33.05;;;13.90;;
24644;SDS011;12780;45.502;9.146;2024-01-11T04:28:19;31.90;;;14.75;;
24644;SDS011;12780;45.502;9.146;2024-01-11T04:30:45;29.38;;;13.68;;
24644;SDS011;12780;45.502;9.146;2024-01-11T04:33:11;29.92;;;14.02;;
24644;SDS011;12780;45.502;9.146;2024-01-11T04:35:37;30.42;;;14.57;;
24644;SDS011;12780;45.502;9.146;2024-01-11T04:38:03;27.70;;;13.73;;
24644;SDS011;12780;45.502;9.146;2024-01-11T04:40:29;27.58;;;13.45;;
24644;SDS011;12780;45.502;9.146;2024-01-11T04:42:55;28.90;;;13.15;;
24644;SDS011;12780;45.502;9.146;2024-01-11T04:45:21;25.75;;;12.95;;
24644;SDS011;12780;45.502;9.146;2024-01-11T04:47:49;27.73;;;14.00;;
24644;SDS011;12780;45.502;9.146;2024-01-11T04:50:15;25.23;;;13.48;;
24644;SDS011;12780;45.502;9.146;2024-01-11T04:52:41;28.48;;;13.73;;
24644;SDS011;12780;45.502;9.146;2024-01-11T04:55:07;27.15;;;13.25;;
24644;SDS011;12780;45.502;9.146;2024-01-11T04:57:33;30.98;;;12.77;;
24644;SDS011;12780;45.502;9.146;2024-01-11T04:59:59;27.30;;;13.77;;
24644;SDS011;12780;45.502;9.146;2024-01-11T05:02:25;25.77;;;13.13;;
24644;SDS011;12780;45.502;9.146;2024-01-11T05:04:51;27.55;;;14.18;;
24644;SDS011;12780;45.502;9.146;2024-01-11T05:07:17;28.63;;;13.75;;
24644;SDS011;12780;45.502;9.146;2024-01-11T05:09:43;26.98;;;13.32;;
24644;SDS011;12780;45.502;9.146;2024-01-11T05:12:09;24.33;;;13.57;;
24644;SDS011;12780;45.502;9.146;2024-01-11T05:14:35;24.98;;;13.48;;
24644;SDS011;12780;45.502;9.146;2024-01-11T05:17:01;25.83;;;13.25;;
24644;SDS011;12780;45.502;9.146;2024-01-11T05:19:27;27.02;;;13.23;;
24644;SDS011;12780;45.502;9.146;2024-01-11T05:21:53;24.27;;;13.52;;
24644;SDS011;12780;45.502;9.146;2024-01-11T05:24:19;31.08;;;13.15;;
24644;SDS011;12780;45.502;9.146;2024-01-11T05:26:45;26.27;;;14.32;;
24644;SDS011;12780;45.502;9.146;2024-01-11T05:29:11;30.98;;;14.30;;
24644;SDS011;12780;45.502;9.146;2024-01-11T05:31:37;26.27;;;13.70;;
24644;SDS011;12780;45.502;9.146;2024-01-11T05:34:03;26.88;;;13.30;;
24644;SDS011;12780;45.502;9.146;2024-01-11T05:36:29;29.50;;;14.55;;
24644;SDS011;12780;45.502;9.146;2024-01-11T05:38:55;41.30;;;13.95;;
24644;SDS011;12780;45.502;9.146;2024-01-11T05:41:21;30.85;;;13.40;;
24644;SDS011;12780;45.502;9.146;2024-01-11T05:43:47;27.60;;;13.68;;
24644;SDS011;12780;45.502;9.146;2024-01-11T05:46:13;26.30;;;13.65;;
24644;SDS011;12780;45.502;9.146;2024-01-11T05:48:39;31.35;;;14.07;;
24644;SDS011;12780;45.502;9.146;2024-01-11T05:51:05;29.23;;;13.50;;
24644;SDS011;12780;45.502;9.146;2024-01-11T05:53:31;31.63;;;15.15;;
24644;SDS011;12780;45.502;9.146;2024-01-11T05:56:00;30.00;;;13.90;;
24644;SDS011;12780;45.502;9.146;2024-01-11T05:58:26;24.67;;;13.77;;
24644;SDS011;12780;45.502;9.146;2024-01-11T06:00:52;34.65;;;14.55;;
24644;SDS011;12780;45.502;9.146;2024-01-11T06:03:18;32.65;;;14.88;;
24644;SDS011;12780;45.502;9.146;2024-01-11T06:05:44;30.17;;;14.32;;
24644;SDS011;12780;45.502;9.146;2024-01-11T06:08:10;35.05;;;14.75;;
24644;SDS011;12780;45.502;9.146;2024-01-11T06:10:36;29.45;;;14.70;;
24644;SDS011;12780;45.502;9.146;2024-01-11T06:13:02;32.67;;;15.00;;
24644;SDS011;12780;45.502;9.146;2024-01-11T06:15:28;28.50;;;14.93;;
24644;SDS011;12780;45.502;9.146;2024-01-11T06:17:54;28.58;;;14.80;;
24644;SDS011;12780;45.502;9.146;2024-01-11T06:20:20;29.05;;;14.35;;
24644;SDS011;12780;45.502;9.146;2024-01-11T06:22:46;34.97;;;14.57;;
24644;SDS011;12780;45.502;9.146;2024-01-11T06:25:12;33.45;;;15.68;;
24644;SDS011;12780;45.502;9.146;2024-01-11T06:27:38;30.75;;;16.10;;
24644;SDS011;12780;45.502;9.146;2024-01-11T06:30:05;29.42;;;15.23;;
24644;SDS011;12780;45.502;9.146;2024-01-11T06:32:31;30.20;;;14.77;;
24644;SDS011;12780;45.502;9.146;2024-01-11T06:34:57;31.90;;;15.02;;
24644;SDS011;12780;45.502;9.146;2024-01-11T06:37:23;35.22;;;16.23;;
24644;SDS011;12780;45.502;9.146;2024-01-11T06:39:49;34.55;;;16.08;;
24644;SDS011;12780;45.502;9.146;2024-01-11T06:42:15;32.33;;;16.42;;
24644;SDS011;12780;45.502;9.146;2024-01-11T06:44:41;33.63;;;16.92;;
24644;SDS011;12780;45.502;9.146;2024-01-11T06:47:07;31.40;;;15.32;;
24644;SDS011;12780;45.502;9.146;2024-01-11T06:49:33;33.83;;;15.25;;
24644;SDS011;12780;45.502;9.146;2024-01-11T06:51:59;36.47;;;16.77;;
24644;SDS011;12780;45.502;9.146;2024-01-11T06:54:25;35.55;;;17.02;;
24644;SDS011;12780;45.502;9.146;2024-01-11T06:56:51;42.42;;;19.67;;
24644;SDS011;12780;45.502;9.146;2024-01-11T06:59:17;42.22;;;19.63;;
24644;SDS011;12780;45.502;9.146;2024-01-11T07:01:43;42.30;;;17.92;;
24644;SDS011;12780;45.502;9.146;2024-01-11T07:04:09;40.92;;;18.02;;
24644;SDS011;12780;45.502;9.146;2024-01-11T07:06:35;33.97;;;17.92;;
24644;SDS011;12780;45.502;9.146;2024-01-11T07:09:01;57.92;;;26.45;;
24644;SDS011;12780;45.502;9.146;2024-01-11T07:11:27;64.90;;;31.02;;
24644;SDS011;12780;45.502;9.146;2024-01-11T07:13:53;53.75;;;25.08;;
24644;SDS011;12780;45.502;9.146;2024-01-11T07:16:20;41.40;;;21.25;;
24644;SDS011;12780;45.502;9.146;2024-01-11T07:18:46;47.40;;;20.60;;
24644;SDS011;12780;45.502;9.146;2024-01-11T07:21:12;44.10;;;18.90;;
24644;SDS011;12780;45.502;9.146;2024-01-11T07:23:38;47.17;;;19.95;;
24644;SDS011;12780;45.502;9.146;2024-01-11T07:26:04;50.47;;;22.17;;
24644;SDS011;12780;45.502;9.146;2024-01-11T07:28:30;49.88;;;23.98;;
24644;SDS011;12780;45.502;9.146;2024-01-11T07:30:56;49.50;;;22.60;;
24644;SDS011;12780;45.502;9.146;2024-01-11T07:33:23;48.92;;;21.35;;
24644;SDS011;12780;45.502;9.146;2024-01-11T07:35:49;52.53;;;21.67;;
24644;SDS011;12780;45.502;9.146;2024-01-11T07:38:15;50.75;;;22.35;;
24644;SDS011;12780;45.502;9.146;2024-01-11T07:40:42;39.67;;;20.65;;
24644;SDS011;12780;45.502;9.146;2024-01-11T07:43:08;44.63;;;20.17;;
24644;SDS011;12780;45.502;9.146;2024-01-11T07:45:34;46.38;;;21.50;;
24644;SDS011;12780;45.502;9.146;2024-01-11T07:48:00;54.15;;;24.17;;
24644;SDS011;12780;45.502;9.146;2024-01-11T07:50:28;74.45;;;33.33;;
24644;SDS011;12780;45.502;9.146;2024-01-11T07:52:54;55.03;;;23.73;;
24644;SDS011;12780;45.502;9.146;2024-01-11T07:55:21;50.13;;;20.35;;
24644;SDS011;12780;45.502;9.146;2024-01-11T07:57:49;47.75;;;19.63;;
24644;SDS011;12780;45.502;9.146;2024-01-11T08:00:15;52.67;;;20.23;;
24644;SDS011;12780;45.502;9.146;2024-01-11T08:02:41;39.75;;;19.67;;
24644;SDS011;12780;45.502;9.146;2024-01-11T08:05:07;43.00;;;19.80;;
24644;SDS011;12780;45.502;9.146;2024-01-11T08:07:34;37.45;;;18.75;;
24644;SDS011;12780;45.502;9.146;2024-01-11T08:10:00;42.42;;;17.52;;
24644;SDS011;12780;45.502;9.146;2024-01-11T08:12:28;37.08;;;17.70;;
24644;SDS011;12780;45.502;9.146;2024-01-11T08:14:55;47.08;;;21.67;;
24644;SDS011;12780;45.502;9.146;2024-01-11T08:17:21;49.22;;;21.75;;
24644;SDS011;12780;45.502;9.146;2024-01-11T08:19:48;47.28;;;22.55;;
24644;SDS011;12780;45.502;9.146;2024-01-11T08:22:14;50.45;;;22.08;;
24644;SDS011;12780;45.502;9.146;2024-01-11T08:24:40;44.92;;;21.60;;
24644;SDS011;12780;45.502;9.146;2024-01-11T08:27:06;53.70;;;21.05;;
24644;SDS011;12780;45.502;9.146;2024-01-11T08:29:32;41.58;;;21.00;;
24644;SDS011;12780;45.502;9.146;2024-01-11T08:31:59;41.72;;;19.42;;
24644;SDS011;12780;45.502;9.146;2024-01-11T08:34:26;46.22;;;19.27;;
24644;SDS011;12780;45.502;9.146;2024-01-11T08:36:52;42.65;;;18.77;;
24644;SDS011;12780;45.502;9.146;2024-01-11T08:39:18;37.67;;;18.15;;
24644;SDS011;12780;45.502;9.146;2024-01-11T08:41:46;35.00;;;17.67;;
24644;SDS011;12780;45.502;9.146;2024-01-11T08:44:12;45.85;;;20.38;;
24644;SDS011;12780;45.502;9.146;2024-01-11T08:46:38;40.75;;;18.92;;
24644;SDS011;12780;45.502;9.146;2024-01-11T08:49:04;42.78;;;19.50;;
24644;SDS011;12780;45.502;9.146;2024-01-11T08:51:31;42.40;;;19.23;;
24644;SDS011;12780;45.502;9.146;2024-01-11T08:53:57;43.40;;;19.45;;
24644;SDS011;12780;45.502;9.146;2024-01-11T08:56:23;44.28;;;19.02;;
24644;SDS011;12780;45.502;9.146;2024-01-11T08:58:49;43.35;;;20.13;;
24644;SDS011;12780;45.502;9.146;2024-01-11T09:01:15;43.25;;;19.83;;
24644;SDS011;12780;45.502;9.146;2024-01-11T09:03:43;40.35;;;19.55;;
24644;SDS011;12780;45.502;9.146;2024-01-11T09:06:09;45.92;;;20.33;;
24644;SDS011;12780;45.502;9.146;2024-01-11T09:08:35;42.97;;;19.27;;
24644;SDS011;12780;45.502;9.146;2024-01-11T09:11:01;43.40;;;17.38;;
24644;SDS011;12780;45.502;9.146;2024-01-11T09:13:28;35.53;;;16.85;;
24644;SDS011;12780;45.502;9.146;2024-01-11T09:15:54;34.50;;;16.50;;
24644;SDS011;12780;45.502;9.146;2024-01-11T09:18:20;33.78;;;15.88;;
24644;SDS011;12780;45.502;9.146;2024-01-11T09:20:47;35.80;;;15.50;;
24644;SDS011;12780;45.502;9.146;2024-01-11T09:23:14;30.42;;;16.33;;
24644;SDS011;12780;45.502;9.146;2024-01-11T09:25:40;37.65;;;17.20;;
24644;SDS011;12780;45.502;9.146;2024-01-11T09:28:06;34.22;;;17.00;;
24644;SDS011;12780;45.502;9.146;2024-01-11T09:30:32;35.83;;;16.77;;
24644;SDS011;12780;45.502;9.146;2024-01-11T09:32:58;36.58;;;16.75;;
24644;SDS011;12780;45.502;9.146;2024-01-11T09:35:25;36.13;;;17.70;;
24644;SDS011;12780;45.502;9.146;2024-01-11T09:37:51;34.05;;;17.08;;
24644;SDS011;12780;45.502;9.146;2024-01-11T09:40:17;37.00;;;17.27;;
24644;SDS011;12780;45.502;9.146;2024-01-11T09:42:43;35.25;;;16.75;;
24644;SDS011;12780;45.502;9.146;2024-01-11T09:45:12;38.83;;;18.05;;
24644;SDS011;12780;45.502;9.146;2024-01-11T09:47:38;36.28;;;16.80;;
24644;SDS011;12780;45.502;9.146;2024-01-11T09:50:04;35.33;;;16.77;;
24644;SDS011;12780;45.502;9.146;2024-01-11T09:52:30;39.33;;;17.95;;
24644;SDS011;12780;45.502;9.146;2024-01-11T09:54:57;37.17;;;17.88;;
24644;SDS011;12780;45.502;9.146;2024-01-11T09:57:24;37.75;;;17.60;;
24644;SDS011;12780;45.502;9.146;2024-01-11T09:59:50;32.97;;;16.60;;
24644;SDS011;12780;45.502;9.146;2024-01-11T10:02:19;42.38;;;17.83;;
24644;SDS011;12780;45.502;9.146;2024-01-11T10:04:45;39.58;;;17.98;;
24644;SDS011;12780;45.502;9.146;2024-01-11T10:07:11;40.33;;;17.40;;
24644;SDS011;12780;45.502;9.146;2024-01-11T10:09:38;41.08;;;17.95;;
24644;SDS011;12780;45.502;9.146;2024-01-11T10:12:04;37.03;;;18.10;;
24644;SDS011;12780;45.502;9.146;2024-01-11T10:14:30;34.75;;;17.45;;
24644;SDS011;12780;45.502;9.146;2024-01-11T10:16:57;34.22;;;17.48;;
24644;SDS011;12780;45.502;9.146;2024-01-11T10:19:23;43.67;;;21.02;;
24644;SDS011;12780;45.502;9.146;2024-01-11T10:21:49;43.72;;;19.38;;
24644;SDS011;12780;45.502;9.146;2024-01-11T10:24:19;44.17;;;18.60;;
24644;SDS011;12780;45.502;9.146;2024-01-11T10:26:46;44.28;;;18.67;;
24644;SDS011;12780;45.502;9.146;2024-01-11T10:29:12;35.45;;;17.77;;
24644;SDS011;12780;45.502;9.146;2024-01-11T10:31:38;36.58;;;17.52;;
24644;SDS011;12780;45.502;9.146;2024-01-11T10:34:05;35.75;;;17.23;;
24644;SDS011;12780;45.502;9.146;2024-01-11T10:36:31;33.53;;;17.15;;
24644;SDS011;12780;45.502;9.146;2024-01-11T10:38:57;36.63;;;16.73;;
24644;SDS011;12780;45.502;9.146;2024-01-11T10:41:26;35.08;;;16.90;;
24644;SDS011;12780;45.502;9.146;2024-01-11T10:43:53;34.58;;;17.20;;
24644;SDS011;12780;45.502;9.146;2024-01-11T10:46:20;38.30;;;17.30;;
24644;SDS011;12780;45.502;9.146;2024-01-11T10:48:48;38.65;;;17.67;;
24644;SDS011;12780;45.502;9.146;2024-01-11T10:51:15;32.60;;;16.90;;
24644;SDS011;12780;45.502;9.146;2024-01-11T10:56:08;34.63;;;17.15;;
24644;SDS011;12780;45.502;9.146;2024-01-11T10:58:37;33.10;;;17.55;;
24644;SDS011;12780;45.502;9.146;2024-01-11T11:01:05;38.60;;;18.50;;
24644;SDS011;12780;45.502;9.146;2024-01-11T11:03:31;38.58;;;18.38;;
24644;SDS011;12780;45.502;9.146;2024-01-11T11:06:00;34.00;;;17.17;;
24644;SDS011;12780;45.502;9.146;2024-01-11T11:08:26;38.20;;;18.85;;
24644;SDS011;12780;45.502;9.146;2024-01-11T11:10:56;34.22;;;17.35;;
24644;SDS011;12780;45.502;9.146;2024-01-11T11:13:22;39.92;;;18.90;;
24644;SDS011;12780;45.502;9.146;2024-01-11T11:15:49;32.92;;;17.83;;
24644;SDS011;12780;45.502;9.146;2024-01-11T11:18:15;35.47;;;18.08;;
24644;SDS011;12780;45.502;9.146;2024-01-11T11:20:41;35.33;;;17.98;;
24644;SDS011;12780;45.502;9.146;2024-01-11T11:23:08;35.72;;;17.38;;
24644;SDS011;12780;45.502;9.146;2024-01-11T11:25:35;35.75;;;18.10;;
24644;SDS011;12780;45.502;9.146;2024-01-11T11:28:01;37.83;;;18.15;;
24644;SDS011;12780;45.502;9.146;2024-01-11T11:30:31;38.95;;;17.65;;
24644;SDS011;12780;45.502;9.146;2024-01-11T11:32:57;34.53;;;18.13;;
24644;SDS011;12780;45.502;9.146;2024-01-11T11:35:23;31.45;;;17.73;;
24644;SDS011;12780;45.502;9.146;2024-01-11T11:37:53;35.83;;;18.48;;
24644;SDS011;12780;45.502;9.146;2024-01-11T11:40:21;40.92;;;18.80;;
24644;SDS011;12780;45.502;9.146;2024-01-11T11:42:47;35.10;;;19.23;;
24644;SDS011;12780;45.502;9.146;2024-01-11T11:45:13;36.05;;;18.45;;
24644;SDS011;12780;45.502;9.146;2024-01-11T11:47:50;41.15;;;19.52;;
24644;SDS011;12780;45.502;9.146;2024-01-11T11:50:16;38.92;;;18.45;;
24644;SDS011;12780;45.502;9.146;2024-01-11T11:52:43;34.75;;;17.80;;
24644;SDS011;12780;45.502;9.146;2024-01-11T11:55:10;38.17;;;18.40;;
24644;SDS011;12780;45.502;9.146;2024-01-11T11:57:37;37.35;;;18.52;;
24644;SDS011;12780;45.502;9.146;2024-01-11T12:00:03;39.50;;;18.63;;
24644;SDS011;12780;45.502;9.146;2024-01-11T12:02:31;38.95;;;18.70;;
24644;SDS011;12780;45.502;9.146;2024-01-11T12:04:57;40.30;;;18.70;;
24644;SDS011;12780;45.502;9.146;2024-01-11T12:07:24;33.20;;;17.60;;
24644;SDS011;12780;45.502;9.146;2024-01-11T12:09:51;37.63;;;18.50;;
24644;SDS011;12780;45.502;9.146;2024-01-11T12:12:17;35.53;;;17.98;;
24644;SDS011;12780;45.502;9.146;2024-01-11T12:14:46;36.15;;;19.33;;
24644;SDS011;12780;45.502;9.146;2024-01-11T12:17:12;34.53;;;18.05;;
24644;SDS011;12780;45.502;9.146;2024-01-11T12:19:38;40.00;;;19.02;;
24644;SDS011;12780;45.502;9.146;2024-01-11T12:22:04;37.97;;;18.75;;
24644;SDS011;12780;45.502;9.146;2024-01-11T12:24:30;32.05;;;18.00;;
24644;SDS011;12780;45.502;9.146;2024-01-11T12:26:56;34.50;;;17.63;;
24644;SDS011;12780;45.502;9.146;2024-01-11T12:29:23;42.92;;;17.95;;
24644;SDS011;12780;45.502;9.146;2024-01-11T12:31:52;35.08;;;17.92;;
24644;SDS011;12780;45.502;9.146;2024-01-11T12:34:18;33.67;;;17.73;;
24644;SDS011;12780;45.502;9.146;2024-01-11T12:36:45;41.25;;;19.13;;
24644;SDS011;12780;45.502;9.146;2024-01-11T12:39:11;37.38;;;18.38;;
24644;SDS011;12780;45.502;9.146;2024-01-11T12:41:38;36.70;;;17.88;;
24644;SDS011;12780;45.502;9.146;2024-01-11T12:44:04;35.47;;;17.95;;
24644;SDS011;12780;45.502;9.146;2024-01-11T12:46:31;44.22;;;22.10;;
24644;SDS011;12780;45.502;9.146;2024-01-11T12:48:57;37.05;;;19.45;;
24644;SDS011;12780;45.502;9.146;2024-01-11T12:51:23;36.22;;;17.63;;
24644;SDS011;12780;45.502;9.146;2024-01-11T12:53:51;33.40;;;16.80;;
24644;SDS011;12780;45.502;9.146;2024-01-11T12:56:18;32.85;;;17.85;;
24644;SDS011;12780;45.502;9.146;2024-01-11T12:58:46;36.90;;;17.83;;
24644;SDS011;12780;45.502;9.146;2024-01-11T13:01:12;39.15;;;18.70;;
24644;SDS011;12780;45.502;9.146;2024-01-11T13:03:39;32.03;;;18.15;;
24644;SDS011;12780;45.502;9.146;2024-01-11T13:06:09;38.28;;;18.20;;
24644;SDS011;12780;45.502;9.146;2024-01-11T13:08:36;33.00;;;17.30;;
24644;SDS011;12780;45.502;9.146;2024-01-11T13:11:05;40.50;;;17.55;;
24644;SDS011;12780;45.502;9.146;2024-01-11T13:13:35;36.75;;;18.02;;
24644;SDS011;12780;45.502;9.146;2024-01-11T13:16:01;35.85;;;17.42;;
24644;SDS011;12780;45.502;9.146;2024-01-11T13:18:31;34.22;;;17.73;;
24644;SDS011;12780;45.502;9.146;2024-01-11T13:20:57;47.80;;;18.23;;
24644;SDS011;12780;45.502;9.146;2024-01-11T13:23:23;35.22;;;17.45;;
24644;SDS011;12780;45.502;9.146;2024-01-11T13:25:50;35.45;;;17.42;;
24644;SDS011;12780;45.502;9.146;2024-01-11T13:28:16;39.88;;;17.27;;
24644;SDS011;12780;45.502;9.146;2024-01-11T13:30:43;35.33;;;18.05;;
24644;SDS011;12780;45.502;9.146;2024-01-11T13:33:10;33.05;;;17.38;;
24644;SDS011;12780;45.502;9.146;2024-01-11T13:35:37;40.63;;;18.10;;
24644;SDS011;12780;45.502;9.146;2024-01-11T13:38:04;32.28;;;17.55;;
24644;SDS011;12780;45.502;9.146;2024-01-11T13:40:30;36.15;;;17.90;;
24644;SDS011;12780;45.502;9.146;2024-01-11T13:42:56;32.15;;;16.98;;
24644;SDS011;12780;45.502;9.146;2024-01-11T13:45:23;33.60;;;17.48;;
24644;SDS011;12780;45.502;9.146;2024-01-11T13:47:49;36.28;;;17.27;;
24644;SDS011;12780;45.502;9.146;2024-01-11T13:50:15;37.42;;;17.85;;
24644;SDS011;12780;45.502;9.146;2024-01-11T13:52:43;30.92;;;17.13;;
24644;SDS011;12780;45.502;9.146;2024-01-11T13:55:10;34.45;;;16.88;;
24644;SDS011;12780;45.502;9.146;2024-01-11T13:57:37;30.05;;;16.70;;
24644;SDS011;12780;45.502;9.146;2024-01-11T14:00:03;31.88;;;17.13;;
24644;SDS011;12780;45.502;9.146;2024-01-11T14:02:30;34.15;;;16.58;;
24644;SDS011;12780;45.502;9.146;2024-01-11T14:04:56;32.55;;;16.65;;
24644;SDS011;12780;45.502;9.146;2024-01-11T14:07:22;37.58;;;17.25;;
24644;SDS011;12780;45.502;9.146;2024-01-11T14:09:49;32.55;;;16.42;;
24644;SDS011;12780;45.502;9.146;2024-01-11T14:12:15;33.08;;;17.38;;
24644;SDS011;12780;45.502;9.146;2024-01-11T14:14:41;36.60;;;17.92;;
24644;SDS011;12780;45.502;9.146;2024-01-11T14:17:08;31.00;;;16.58;;
24644;SDS011;12780;45.502;9.146;2024-01-11T14:19:34;35.00;;;16.63;;